createdAt,value
2022-11-05T00:00:33.164Z,101641.25
2022-11-05T00:03:19.170Z,101647.00
2022-11-05T00:06:07.036Z,101640.91
2022-11-05T00:08:53.037Z,101637.19
2022-11-05T00:11:41.298Z,101637.75
2022-11-05T00:14:26.898Z,101625.09
2022-11-05T00:16:56.241Z,101627.09
2022-11-05T00:19:24.239Z,101622.41
2022-11-05T00:22:09.588Z,101607.41
2022-11-05T00:24:55.231Z,101610.78
2022-11-05T00:27:23.320Z,101619.69
2022-11-05T00:29:51.440Z,101623.91
2022-11-05T00:32:20.928Z,101623.91
2022-11-05T00:34:48.984Z,101630.97
2022-11-05T00:37:17.065Z,101632.47
2022-11-05T00:39:45.158Z,101631.81
2022-11-05T00:42:30.658Z,101633.31
2022-11-05T00:45:04.548Z,101633.81
2022-11-05T00:47:48.747Z,101637.72
2022-11-05T00:50:16.830Z,101639.72
2022-11-05T00:52:56.991Z,101631.78
2022-11-05T00:55:26.700Z,101641.06
2022-11-05T00:57:55.249Z,101641.38
2022-11-05T01:00:24.479Z,101641.38
2022-11-05T01:02:54.014Z,101637.34
2022-11-05T01:05:22.187Z,101640.03
2022-11-05T01:07:50.294Z,101641.72
2022-11-05T01:10:18.532Z,101646.94
2022-11-05T01:12:46.601Z,101637.84
2022-11-05T01:15:16.104Z,101633.28
2022-11-05T01:17:44.201Z,101640.03
2022-11-05T01:20:13.854Z,101640.03
2022-11-05T01:22:42.006Z,101640.50
2022-11-05T01:25:11.209Z,101636.97
2022-11-05T01:27:41.241Z,101629.72
2022-11-05T01:30:10.489Z,101628.38
2022-11-05T01:32:38.796Z,101621.09
2022-11-05T01:35:09.303Z,101628.16
2022-11-05T01:37:39.472Z,101619.03
2022-11-05T01:40:11.505Z,101620.56
2022-11-05T01:42:39.794Z,101619.72
2022-11-05T01:45:14.956Z,101618.38
2022-11-05T01:47:51.159Z,101613.81
2022-11-05T01:50:28.486Z,101616.97
2022-11-05T01:53:03.979Z,101619.31
2022-11-05T01:55:36.833Z,101620.34
2022-11-05T01:58:08.397Z,101610.59
2022-11-05T02:00:37.751Z,101615.44
2022-11-05T02:03:06.075Z,101624.72
2022-11-05T02:05:35.793Z,101623.53
2022-11-05T02:08:05.795Z,101618.34
2022-11-05T02:10:34.223Z,101614.59
2022-11-05T02:13:03.712Z,101610.22
2022-11-05T02:15:41.125Z,101613.56
2022-11-05T02:18:21.361Z,101605.47
2022-11-05T02:21:00.416Z,101600.75
2022-11-05T02:23:55.114Z,101601.41
2022-11-05T02:27:06.985Z,101598.38
2022-11-05T02:30:08.775Z,101604.13
2022-11-05T02:32:54.781Z,101604.59
2022-11-05T02:35:37.012Z,101593.78
2022-11-05T02:38:10.068Z,101587.56
2022-11-05T02:40:50.607Z,101588.59
2022-11-05T02:43:33.548Z,101594.00
2022-11-05T02:46:11.710Z,101603.41
2022-11-05T02:48:47.601Z,101609.00
2022-11-05T02:51:24.575Z,101605.09
2022-11-05T02:53:59.428Z,101597.16
2022-11-05T02:56:32.227Z,101610.88
2022-11-05T02:59:00.220Z,101605.47
2022-11-05T03:01:28.298Z,101608.31
2022-11-05T03:04:00.569Z,101609.34
2022-11-05T03:07:09.244Z,101611.53
2022-11-05T03:10:11.640Z,101621.50
2022-11-05T03:12:48.522Z,101615.28
2022-11-05T03:15:26.881Z,101612.72
2022-11-05T03:18:03.401Z,101599.44
2022-11-05T03:20:38.875Z,101587.97
2022-11-05T03:23:13.610Z,101586.09
2022-11-05T03:25:47.274Z,101595.59
2022-11-05T03:28:18.625Z,101593.53
2022-11-05T03:30:49.214Z,101590.81
2022-11-05T03:33:22.379Z,101580.59
2022-11-05T03:35:55.077Z,101589.00
2022-11-05T03:38:28.054Z,101586.63
2022-11-05T03:40:59.791Z,101587.66
2022-11-05T03:43:33.997Z,101573.13
2022-11-05T03:46:06.297Z,101570.44
2022-11-05T03:48:39.896Z,101566.25
2022-11-05T03:51:15.450Z,101564.75
2022-11-05T03:53:47.808Z,101557.78
2022-11-05T03:56:21.718Z,101552.75
2022-11-05T03:58:54.675Z,101552.56
2022-11-05T04:01:26.506Z,101559.34
2022-11-05T04:03:54.650Z,101553.59
2022-11-05T04:06:41.852Z,101555.63
2022-11-05T04:09:29.445Z,101551.53
2022-11-05T04:12:14.790Z,101559.63
2022-11-05T04:14:42.908Z,101555.25
2022-11-05T04:17:10.093Z,101553.59
2022-11-05T04:19:57.017Z,101561.00
2022-11-05T04:22:45.807Z,101549.03
2022-11-05T04:25:14.540Z,101556.94
2022-11-05T04:27:42.654Z,101546.31
2022-11-05T04:30:21.950Z,101543.63
2022-11-05T04:33:02.272Z,101558.63
2022-11-05T04:35:31.852Z,101556.59
2022-11-05T04:38:01.363Z,101565.53
2022-11-05T04:40:29.790Z,101571.09
2022-11-05T04:42:58.531Z,101568.72
2022-11-05T04:45:28.364Z,101571.41
2022-11-05T04:47:56.385Z,101579.50
2022-11-05T04:50:25.247Z,101578.47
2022-11-05T04:52:53.312Z,101569.53
2022-11-05T04:55:22.869Z,101581.69
2022-11-05T04:57:51.712Z,101571.38
2022-11-05T05:00:21.403Z,101557.88
2022-11-05T05:02:49.981Z,101547.75
2022-11-05T05:05:18.192Z,101550.06
2022-11-05T05:07:46.334Z,101546.19
2022-11-05T05:10:14.305Z,101547.84
2022-11-05T05:12:43.771Z,101550.38
2022-11-05T05:15:12.140Z,101549.56
2022-11-05T05:17:40.155Z,101549.56
2022-11-05T05:20:26.137Z,101544.97
2022-11-05T05:22:54.690Z,101545.66
2022-11-05T05:25:23.635Z,101539.59
2022-11-05T05:27:53.061Z,101537.72
2022-11-05T05:30:21.092Z,101536.06
2022-11-05T05:32:49.068Z,101534.84
2022-11-05T05:35:17.543Z,101537.56
2022-11-05T05:37:45.597Z,101546.28
2022-11-05T05:40:13.704Z,101538.38
2022-11-05T05:42:43.413Z,101535.16
2022-11-05T05:45:13.857Z,101533.47
2022-11-05T05:47:42.936Z,101534.78
2022-11-05T05:50:11.002Z,101533.59
2022-11-05T05:52:39.097Z,101527.00
2022-11-05T05:55:07.800Z,101528.66
2022-11-05T05:57:36.153Z,101530.84
2022-11-05T06:00:06.354Z,101521.34
2022-11-05T06:02:41.730Z,101514.94
2022-11-05T06:05:11.130Z,101535.97
2022-11-05T06:07:39.279Z,101532.28
2022-11-05T06:10:08.138Z,101520.25
2022-11-05T06:12:36.154Z,101517.38
2022-11-05T06:15:04.923Z,101520.91
2022-11-05T06:17:34.246Z,101510.59
2022-11-05T06:20:03.828Z,101513.09
2022-11-05T06:22:32.361Z,101514.59
2022-11-05T06:25:00.388Z,101516.75
2022-11-05T06:27:29.650Z,101522.81
2022-11-05T06:30:00.348Z,101519.75
2022-11-05T06:32:28.692Z,101513.97
2022-11-05T06:34:56.704Z,101510.72
2022-11-05T06:37:27.793Z,101512.47
2022-11-05T06:39:57.175Z,101513.34
2022-11-05T06:42:25.558Z,101505.50
2022-11-05T06:44:54.171Z,101508.41
2022-11-05T06:47:22.432Z,101502.78
2022-11-05T06:49:50.698Z,101506.91
2022-11-05T06:52:19.332Z,101513.81
2022-11-05T06:54:48.895Z,101504.13
2022-11-05T06:57:16.924Z,101501.25
2022-11-05T06:59:45.139Z,101500.84
2022-11-05T07:02:14.521Z,101496.78
2022-11-05T07:04:42.620Z,101491.38
2022-11-05T07:07:11.055Z,101486.19
2022-11-05T07:09:42.976Z,101491.00
2022-11-05T07:12:12.477Z,101494.31
2022-11-05T07:14:40.468Z,101493.97
2022-11-05T07:17:08.604Z,101494.81
2022-11-05T07:19:36.626Z,101502.72
2022-11-05T07:22:04.693Z,101497.41
2022-11-05T07:24:32.713Z,101495.38
2022-11-05T07:27:00.690Z,101497.41
2022-11-05T07:29:30.104Z,101496.19
2022-11-05T07:31:58.484Z,101487.59
2022-11-05T07:34:26.541Z,101492.84
2022-11-05T07:36:54.560Z,101487.69
2022-11-05T07:39:22.912Z,101481.63
2022-11-05T07:41:53.245Z,101485.00
2022-11-05T07:44:21.200Z,101488.97
2022-11-05T07:46:50.766Z,101486.09
2022-11-05T07:49:19.451Z,101482.56
2022-11-05T07:51:47.590Z,101491.69
2022-11-05T07:54:15.656Z,101492.34
2022-11-05T07:56:43.696Z,101488.25
2022-11-05T07:59:11.698Z,101496.03
2022-11-05T08:01:40.429Z,101497.78
2022-11-05T08:04:09.952Z,101500.28
2022-11-05T08:06:38.056Z,101507.00
2022-11-05T08:09:06.187Z,101498.69
2022-11-05T08:11:35.834Z,101502.88
2022-11-05T08:14:03.890Z,101506.25
2022-11-05T08:16:32.021Z,101507.47
2022-11-05T08:19:00.040Z,101501.28
2022-11-05T08:21:29.435Z,101513.97
2022-11-05T08:23:57.465Z,101506.97
2022-11-05T08:26:25.544Z,101504.34
2022-11-05T08:28:53.965Z,101514.69
2022-11-05T08:31:22.032Z,101504.69
2022-11-05T08:33:50.610Z,101507.41
2022-11-05T08:36:18.636Z,101510.38
2022-11-05T08:38:48.101Z,101514.13
2022-11-05T08:41:16.152Z,101506.47
2022-11-05T08:43:44.160Z,101502.25
2022-11-05T08:46:12.208Z,101501.25
2022-11-05T08:48:40.266Z,101501.69
2022-11-05T08:51:08.347Z,101506.16
2022-11-05T08:53:36.891Z,101499.44
2022-11-05T08:56:06.972Z,101500.47
2022-11-05T08:58:35.676Z,101493.66
2022-11-05T09:01:05.855Z,101493.28
2022-11-05T09:03:33.949Z,101490.09
2022-11-05T09:06:02.130Z,101487.19
2022-11-05T09:08:30.464Z,101480.63
2022-11-05T09:10:58.677Z,101487.50
2022-11-05T09:13:28.541Z,101486.72
2022-11-05T09:15:59.018Z,101477.78
2022-11-05T09:18:30.183Z,101482.63
2022-11-05T09:20:58.832Z,101469.50
2022-11-05T09:23:26.868Z,101470.34
2022-11-05T09:25:55.018Z,101455.22
2022-11-05T09:28:24.577Z,101459.84
2022-11-05T09:30:54.358Z,101451.50
2022-11-05T09:33:25.541Z,101452.56
2022-11-05T09:36:00.651Z,101452.81
2022-11-05T09:38:29.618Z,101452.25
2022-11-05T09:41:00.928Z,101449.59
2022-11-05T09:43:35.153Z,101449.06
2022-11-05T09:46:12.743Z,101442.75
2022-11-05T09:48:44.611Z,101442.56
2022-11-05T09:51:23.406Z,101426.75
2022-11-05T09:53:53.669Z,101434.69
2022-11-05T09:56:26.223Z,101432.63
2022-11-05T09:58:59.289Z,101422.03
2022-11-05T10:01:34.356Z,101429.53
2022-11-05T10:04:07.899Z,101418.97
2022-11-05T10:06:49.634Z,101420.66
2022-11-05T10:09:25.226Z,101422.38
2022-11-05T10:11:58.578Z,101426.16
2022-11-05T10:14:29.965Z,101428.06
2022-11-05T10:17:02.463Z,101433.78
2022-11-05T10:19:40.676Z,101426.69
2022-11-05T10:22:12.909Z,101430.47
2022-11-05T10:24:43.751Z,101422.31
2022-11-05T10:27:18.340Z,101419.00
2022-11-05T10:29:47.446Z,101416.72
2022-11-05T10:32:24.915Z,101408.97
2022-11-05T10:34:55.428Z,101405.00
2022-11-05T10:37:25.893Z,101404.81
2022-11-05T10:39:58.395Z,101405.00
2022-11-05T10:42:41.210Z,101400.84
2022-11-05T10:45:22.863Z,101398.38
2022-11-05T10:48:04.029Z,101397.94
2022-11-05T10:50:32.587Z,101387.31
2022-11-05T10:53:03.899Z,101380.41
2022-11-05T10:55:36.133Z,101374.53
2022-11-05T10:58:19.381Z,101374.75
2022-11-05T11:01:03.140Z,101371.22
2022-11-05T11:03:40.451Z,101368.53
2022-11-05T11:06:19.727Z,101359.94
2022-11-05T11:08:49.850Z,101363.47
2022-11-05T11:11:29.350Z,101354.06
2022-11-05T11:14:06.249Z,101347.38
2022-11-05T11:16:40.315Z,101342.34
2022-11-05T11:19:28.994Z,101330.41
2022-11-05T11:22:17.609Z,101322.25
2022-11-05T11:24:48.172Z,101323.88
2022-11-05T11:27:22.213Z,101325.75
2022-11-05T11:29:56.763Z,101316.34
2022-11-05T11:32:28.686Z,101304.63
2022-11-05T11:34:58.841Z,101315.50
2022-11-05T11:37:30.081Z,101320.91
2022-11-05T11:40:03.139Z,101318.41
2022-11-05T11:42:34.836Z,101315.69
2022-11-05T11:45:15.489Z,101314.66
2022-11-05T11:47:46.026Z,101316.31
2022-11-05T11:50:38.768Z,101317.75
2022-11-05T11:53:22.624Z,101317.56
2022-11-05T11:56:03.862Z,101314.59
2022-11-05T11:58:43.813Z,101310.63
2022-11-05T12:01:44.848Z,101304.75
2022-11-05T12:04:27.310Z,101304.16
2022-11-05T12:07:10.360Z,101302.44
2022-11-05T12:09:57.708Z,101296.38
2022-11-05T12:12:33.250Z,101280.69
2022-11-05T12:15:13.398Z,101295.94
2022-11-05T12:17:51.630Z,101291.13
2022-11-05T12:20:40.348Z,101284.84
2022-11-05T12:23:33.238Z,101282.13
2022-11-05T12:26:12.690Z,101278.16
2022-11-05T12:29:17.721Z,101265.81
2022-11-05T12:31:56.930Z,101259.75
2022-11-05T12:34:41.321Z,101261.03
2022-11-05T12:37:20.916Z,101255.75
2022-11-05T12:40:10.915Z,101248.88
2022-11-05T12:42:52.735Z,101251.34
2022-11-05T12:45:36.189Z,101242.97
2022-11-05T12:48:30.318Z,101231.28
2022-11-05T12:51:09.956Z,101227.50
2022-11-05T12:53:57.606Z,101209.91
2022-11-05T12:56:34.480Z,101202.34
2022-11-05T12:59:07.246Z,101192.31
2022-11-05T13:01:40.457Z,101192.78
2022-11-05T13:04:18.172Z,101191.28
2022-11-05T13:06:50.948Z,101174.28
2022-11-05T13:09:24.154Z,101167.63
2022-11-05T13:11:58.401Z,101155.03
2022-11-05T13:14:30.203Z,101156.31
2022-11-05T13:17:01.899Z,101161.94
2022-11-05T13:19:36.101Z,101170.75
2022-11-05T13:22:14.257Z,101175.09
2022-11-05T13:24:49.477Z,101177.97
2022-11-05T13:27:42.724Z,101156.63
2022-11-05T13:30:16.655Z,101165.03
2022-11-05T13:32:48.301Z,101171.91
2022-11-05T13:35:23.514Z,101169.59
2022-11-05T13:38:15.719Z,101165.81
2022-11-05T13:40:55.478Z,101155.06
2022-11-05T13:43:43.612Z,101149.88
2022-11-05T13:46:26.518Z,101161.13
2022-11-05T13:49:20.102Z,101154.94
2022-11-05T13:51:52.627Z,101150.25
2022-11-05T13:55:00.145Z,101154.41
2022-11-05T13:58:05.636Z,101150.25
2022-11-05T14:00:43.316Z,101128.03
2022-11-05T14:03:18.647Z,101103.59
2022-11-05T14:05:55.439Z,101113.66
2022-11-05T14:08:29.241Z,101098.38
2022-11-05T14:11:05.361Z,101104.25
2022-11-05T14:13:37.077Z,101098.59
2022-11-05T14:16:10.392Z,101103.81
2022-11-05T14:18:44.982Z,101099.66
2022-11-05T14:21:48.375Z,101095.06
2022-11-05T14:24:27.127Z,101094.97
2022-11-05T14:27:32.549Z,101091.19
2022-11-05T14:30:02.027Z,101103.78
2022-11-05T14:32:50.093Z,101092.25
2022-11-05T14:35:39.709Z,101084.09
2022-11-05T14:38:21.259Z,101104.22
2022-11-05T14:40:50.511Z,101096.47
2022-11-05T14:43:23.517Z,101090.78
2022-11-05T14:45:57.216Z,101089.34
2022-11-05T14:48:37.585Z,101080.31
2022-11-05T14:51:25.714Z,101082.81
2022-11-05T14:54:01.074Z,101081.53
2022-11-05T14:56:29.365Z,101077.75
2022-11-05T14:59:45.455Z,101068.53
2022-11-05T15:02:18.600Z,101074.44
2022-11-05T15:04:49.393Z,101070.97
2022-11-05T15:07:41.233Z,101058.66
2022-11-05T15:10:15.449Z,101050.22
2022-11-05T15:12:46.894Z,101049.56
2022-11-05T15:15:22.548Z,101060.53
2022-11-05T15:18:01.366Z,101046.63
2022-11-05T15:20:40.226Z,101053.19
2022-11-05T15:23:15.754Z,101033.44
2022-11-05T15:25:53.352Z,101048.50
2022-11-05T15:28:31.683Z,101060.81
2022-11-05T15:31:03.062Z,101053.72
2022-11-05T15:33:32.755Z,101053.88
2022-11-05T15:36:13.089Z,101045.94
2022-11-05T15:38:56.642Z,101051.78
2022-11-05T15:41:34.626Z,101053.63
2022-11-05T15:44:03.152Z,101055.31
2022-11-05T15:46:31.448Z,101053.88
2022-11-05T15:49:03.183Z,101052.16
2022-11-05T15:51:32.947Z,101056.16
2022-11-05T15:54:31.954Z,101054.88
2022-11-05T15:56:54.225Z,101050.84
2022-11-05T15:59:26.512Z,101047.53
2022-11-05T16:01:57.977Z,101047.38
2022-11-05T16:04:28.891Z,101047.00
2022-11-05T16:07:01.471Z,101050.69
2022-11-05T16:09:31.720Z,101041.00
2022-11-05T16:12:28.556Z,101045.88
2022-11-05T16:15:04.448Z,101047.72
2022-11-05T16:17:46.254Z,101052.50
2022-11-05T16:20:23.729Z,101051.91
2022-11-05T16:22:56.305Z,101046.09
2022-11-05T16:25:31.987Z,101041.47
2022-11-05T16:28:01.952Z,101035.97
2022-11-05T16:30:30.635Z,101038.91
2022-11-05T16:33:06.189Z,101030.97
2022-11-05T16:35:34.806Z,101032.72
2022-11-05T16:38:04.699Z,101016.75
2022-11-05T16:40:32.812Z,101017.09
2022-11-05T16:43:16.265Z,101012.59
2022-11-05T16:45:44.414Z,101017.19
2022-11-05T16:48:13.219Z,101014.22
2022-11-05T16:50:42.244Z,101021.81
2022-11-05T16:53:12.271Z,101012.59
2022-11-05T16:55:43.629Z,101015.81
2022-11-05T16:58:20.859Z,101013.56
2022-11-05T17:00:50.257Z,101016.94
2022-11-05T17:03:19.070Z,101017.09
2022-11-05T17:05:47.848Z,101015.91
2022-11-05T17:08:17.275Z,101019.47
2022-11-05T17:10:45.855Z,101025.06
2022-11-05T17:13:16.189Z,101013.78
2022-11-05T17:15:46.446Z,101014.22
2022-11-05T17:18:18.614Z,101019.69
2022-11-05T17:20:49.412Z,101015.91
2022-11-05T17:23:21.198Z,101028.00
2022-11-05T17:25:51.826Z,101019.00
2022-11-05T17:28:20.580Z,101019.81
2022-11-05T17:30:53.022Z,101026.81
2022-11-05T17:33:22.803Z,101020.91
2022-11-05T17:35:52.142Z,101017.09
2022-11-05T17:38:22.962Z,101015.00
2022-11-05T17:40:51.600Z,101024.44
2022-11-05T17:43:21.257Z,101018.31
2022-11-05T17:45:51.959Z,101015.44
2022-11-05T17:48:23.663Z,101011.19
2022-11-05T17:50:52.178Z,101011.59
2022-11-05T17:53:21.903Z,101011.34
2022-11-05T17:55:50.233Z,101005.06
2022-11-05T17:58:18.711Z,101007.81
2022-11-05T18:00:48.874Z,101005.28
2022-11-05T18:03:17.421Z,101006.66
2022-11-05T18:05:48.299Z,101009.84
2022-11-05T18:08:16.528Z,101006.06
2022-11-05T18:10:46.350Z,101007.69
2022-11-05T18:13:14.818Z,100992.47
2022-11-05T18:15:43.705Z,100993.41
2022-11-05T18:18:12.938Z,100989.63
2022-11-05T18:20:43.241Z,100989.84
2022-11-05T18:23:11.982Z,100989.25
2022-11-05T18:25:41.999Z,100990.69
2022-11-05T18:28:14.172Z,100982.50
2022-11-05T18:30:42.991Z,100978.03
2022-11-05T18:33:11.916Z,100983.72
2022-11-05T18:35:44.303Z,100974.34
2022-11-05T18:38:13.141Z,100975.56
2022-11-05T18:40:41.518Z,100983.34
2022-11-05T18:43:14.210Z,100973.03
2022-11-05T18:45:42.797Z,100978.63
2022-11-05T18:48:12.248Z,100972.03
2022-11-05T18:50:41.355Z,100973.19
2022-11-05T18:53:09.625Z,100972.34
2022-11-05T18:55:39.883Z,100975.81
2022-11-05T18:58:08.046Z,100972.97
2022-11-05T19:00:40.111Z,100956.38
2022-11-05T19:03:09.668Z,100972.72
2022-11-05T19:05:37.978Z,100969.31
2022-11-05T19:08:06.222Z,100967.41
2022-11-05T19:10:34.422Z,100958.78
2022-11-05T19:13:02.543Z,100967.56
2022-11-05T19:15:30.834Z,100968.03
2022-11-05T19:18:00.464Z,100969.19
2022-11-05T19:20:31.338Z,100963.03
2022-11-05T19:23:03.277Z,100962.56
2022-11-05T19:25:31.327Z,100960.66
2022-11-05T19:28:01.867Z,100963.84
2022-11-05T19:30:30.280Z,100959.22
2022-11-05T19:32:58.619Z,100952.16
2022-11-05T19:35:36.934Z,100962.94
2022-11-05T19:38:08.350Z,100957.72
2022-11-05T19:40:38.661Z,100953.94
2022-11-05T19:43:06.998Z,100956.53
2022-11-05T19:45:50.583Z,100952.38
2022-11-05T19:48:20.336Z,100950.94
2022-11-05T19:50:50.223Z,100949.78
2022-11-05T19:53:18.710Z,100963.66
2022-11-05T19:55:48.054Z,100952.03
2022-11-05T19:58:16.502Z,100965.25
2022-11-05T20:00:45.129Z,100965.25
2022-11-05T20:03:13.573Z,100944.94
2022-11-05T20:05:42.026Z,100947.34
2022-11-05T20:08:12.031Z,100954.44
2022-11-05T20:10:40.391Z,100946.72
2022-11-05T20:13:08.672Z,100941.88
2022-11-05T20:15:39.330Z,100944.97
2022-11-05T20:18:08.446Z,100935.75
2022-11-05T20:20:37.007Z,100932.28
2022-11-05T20:23:05.131Z,100944.28
2022-11-05T20:25:36.970Z,100945.09
2022-11-05T20:28:07.022Z,100946.53
2022-11-05T20:30:35.818Z,100941.91
2022-11-05T20:33:04.026Z,100941.06
2022-11-05T20:35:32.316Z,100933.97
2022-11-05T20:38:00.536Z,100926.00
2022-11-05T20:40:28.603Z,100944.41
2022-11-05T20:43:01.309Z,100932.56
2022-11-05T20:45:29.527Z,100922.13
2022-11-05T20:47:57.770Z,100926.31
2022-11-05T20:50:25.750Z,100925.00
2022-11-05T20:52:53.839Z,100927.13
2022-11-05T20:55:24.854Z,100927.25
2022-11-05T20:57:52.924Z,100928.34
2022-11-05T21:00:23.085Z,100927.50
2022-11-05T21:02:54.570Z,100927.25
2022-11-05T21:05:59.748Z,100932.34
2022-11-05T21:08:30.543Z,100929.50
2022-11-05T21:10:59.092Z,100921.81
2022-11-05T21:13:27.910Z,100920.84
2022-11-05T21:15:59.457Z,100929.03
2022-11-05T21:18:30.454Z,100935.34
2022-11-05T21:20:59.819Z,100935.34
2022-11-05T21:23:28.848Z,100930.94
2022-11-05T21:25:57.118Z,100936.84
2022-11-05T21:28:25.632Z,100935.44
2022-11-05T21:30:53.825Z,100936.28
2022-11-05T21:33:23.331Z,100922.53
2022-11-05T21:35:51.542Z,100924.44
2022-11-05T21:38:19.663Z,100922.78
2022-11-05T21:40:48.381Z,100931.31
2022-11-05T21:43:16.843Z,100927.75
2022-11-05T21:45:46.235Z,100926.69
2022-11-05T21:48:15.534Z,100925.38
2022-11-05T21:51:02.999Z,100923.72
2022-11-05T21:53:48.664Z,100918.97
2022-11-05T21:56:40.593Z,100917.53
2022-11-05T21:59:30.324Z,100918.63
2022-11-05T22:02:04.761Z,100914.22
2022-11-05T22:04:35.582Z,100921.00
2022-11-05T22:07:06.037Z,100922.66
2022-11-05T22:09:34.228Z,100913.16
2022-11-05T22:12:03.158Z,100908.88
2022-11-05T22:14:31.308Z,100921.47
2022-11-05T22:16:59.805Z,100916.09
2022-11-05T22:19:28.250Z,100920.75
2022-11-05T22:21:56.517Z,100912.06
2022-11-05T22:24:28.025Z,100911.03
2022-11-05T22:26:56.138Z,100902.84
2022-11-05T22:29:24.443Z,100900.13
2022-11-05T22:31:52.850Z,100893.22
2022-11-05T22:34:21.674Z,100886.34
2022-11-05T22:36:50.097Z,100876.59
2022-11-05T22:39:19.089Z,100879.34
2022-11-05T22:41:49.201Z,100876.38
2022-11-05T22:44:17.798Z,100867.59
2022-11-05T22:46:46.121Z,100862.97
2022-11-05T22:49:14.437Z,100866.19
2022-11-05T22:51:42.864Z,100858.00
2022-11-05T22:54:11.788Z,100853.34
2022-11-05T22:56:42.104Z,100862.28
2022-11-05T22:59:13.457Z,100852.78
2022-11-05T23:01:42.222Z,100849.31
2022-11-05T23:04:11.102Z,100848.16
2022-11-05T23:06:56.648Z,100848.75
2022-11-05T23:09:46.190Z,100854.22
2022-11-05T23:12:23.140Z,100852.16
2022-11-05T23:14:53.430Z,100846.84
2022-11-05T23:17:39.311Z,100848.97
2022-11-05T23:20:32.466Z,100846.47
2022-11-05T23:23:18.000Z,100854.91
2022-11-05T23:25:46.553Z,100853.13
2022-11-05T23:28:15.530Z,100844.69
2022-11-05T23:30:59.934Z,100844.47
2022-11-05T23:33:28.869Z,100841.63
2022-11-05T23:36:14.342Z,100845.19
2022-11-05T23:38:42.459Z,100838.56
2022-11-05T23:41:27.916Z,100842.72
2022-11-05T23:44:13.687Z,100837.72
2022-11-05T23:47:00.529Z,100832.03
2022-11-05T23:49:28.659Z,100828.81
2022-11-05T23:51:56.663Z,100833.09
2022-11-05T23:54:25.166Z,100831.78
2022-11-05T23:56:53.188Z,100830.50
2022-11-05T23:59:21.393Z,100823.72
